sensor_id;sensor_type;location;lat;lon;timestamp;pressure;altitude;pressure_sealevel;temperature;humidity
2785;BME280;57944;48.722;9.316;2023-10-13T00:00:42;98164.06;;;17.76;85.32
2785;BME280;57944;48.722;9.316;2023-10-13T00:03:15;98166.97;;;17.80;92.44
2785;BME280;57944;48.722;9.316;2023-10-13T00:05:46;98163.81;;;17.78;89.17
2785;BME280;57944;48.722;9.316;2023-10-13T00:08:22;98165.94;;;17.64;88.61
2785;BME280;57944;48.722;9.316;2023-10-13T00:10:53;98169.34;;;17.53;89.13
2785;BME280;57944;48.722;9.316;2023-10-13T00:13:28;98157.06;;;17.43;89.98
2785;BME280;57944;48.722;9.316;2023-10-13T00:16:09;98154.34;;;17.21;91.31
2785;BME280;57944;48.722;9.316;2023-10-13T00:18:44;98149.97;;;16.93;93.77
2785;BME280;57944;48.722;9.316;2023-10-13T00:21:15;98154.94;;;16.83;94.37
2785;BME280;57944;48.722;9.316;2023-10-13T00:23:50;98153.50;;;16.63;95.08
2785;BME280;57944;48.722;9.316;2023-10-13T00:26:26;98148.88;;;16.65;91.89
2785;BME280;57944;48.722;9.316;2023-10-13T00:29:01;98146.66;;;16.57;92.80
2785;BME280;57944;48.722;9.316;2023-10-13T00:31:39;98145.00;;;16.39;92.23
2785;BME280;57944;48.722;9.316;2023-10-13T00:34:12;98139.84;;;16.39;92.50
2785;BME280;57944;48.722;9.316;2023-10-13T00:36:47;98150.03;;;16.34;91.88
2785;BME280;57944;48.722;9.316;2023-10-13T00:39:41;98142.22;;;16.17;94.97
2785;BME280;57944;48.722;9.316;2023-10-13T00:42:14;98143.00;;;16.06;95.06
2785;BME280;57944;48.722;9.316;2023-10-13T00:44:53;98140.94;;;15.96;97.09
2785;BME280;57944;48.722;9.316;2023-10-13T00:47:22;98138.75;;;15.88;96.85
2785;BME280;57944;48.722;9.316;2023-10-13T00:50:06;98134.69;;;15.80;96.46
2785;BME280;57944;48.722;9.316;2023-10-13T00:52:44;98143.16;;;15.69;98.64
2785;BME280;57944;48.722;9.316;2023-10-13T00:55:22;98139.88;;;15.62;100.00
2785;BME280;57944;48.722;9.316;2023-10-13T00:57:57;98133.69;;;15.51;99.89
2785;BME280;57944;48.722;9.316;2023-10-13T01:00:30;98138.94;;;15.45;99.95
2785;BME280;57944;48.722;9.316;2023-10-13T01:03:13;98142.53;;;15.44;100.00
2785;BME280;57944;48.722;9.316;2023-10-13T01:05:42;98145.72;;;15.39;100.00
2785;BME280;57944;48.722;9.316;2023-10-13T01:08:12;98136.25;;;15.39;99.99
2785;BME280;57944;48.722;9.316;2023-10-13T01:10:44;98138.25;;;15.37;100.00
2785;BME280;57944;48.722;9.316;2023-10-13T01:13:17;98137.78;;;15.40;100.00
2785;BME280;57944;48.722;9.316;2023-10-13T01:15:44;98135.59;;;15.44;100.00
2785;BME280;57944;48.722;9.316;2023-10-13T01:18:15;98135.22;;;15.40;99.43
2785;BME280;57944;48.722;9.316;2023-10-13T01:20:44;98135.81;;;15.42;98.61
2785;BME280;57944;48.722;9.316;2023-10-13T01:23:22;98127.53;;;15.40;97.94
2785;BME280;57944;48.722;9.316;2023-10-13T01:25:52;98123.97;;;15.41;98.41
2785;BME280;57944;48.722;9.316;2023-10-13T01:28:23;98125.75;;;15.41;98.78
2785;BME280;57944;48.722;9.316;2023-10-13T01:30:51;98127.13;;;15.44;97.11
2785;BME280;57944;48.722;9.316;2023-10-13T01:33:22;98119.72;;;15.35;99.60
2785;BME280;57944;48.722;9.316;2023-10-13T01:35:55;98123.63;;;15.38;100.00
2785;BME280;57944;48.722;9.316;2023-10-13T01:38:36;98125.69;;;15.29;99.33
2785;BME280;57944;48.722;9.316;2023-10-13T01:41:10;98120.22;;;15.26;97.93
2785;BME280;57944;48.722;9.316;2023-10-13T01:43:37;98117.53;;;15.20;99.25
2785;BME280;57944;48.722;9.316;2023-10-13T01:46:10;98119.31;;;15.20;98.40
2785;BME280;57944;48.722;9.316;2023-10-13T01:48:38;98120.34;;;15.31;99.71
2785;BME280;57944;48.722;9.316;2023-10-13T01:51:09;98115.31;;;15.24;99.14
2785;BME280;57944;48.722;9.316;2023-10-13T01:53:40;98124.88;;;15.17;99.10
2785;BME280;57944;48.722;9.316;2023-10-13T01:56:11;98111.91;;;15.12;100.00
2785;BME280;57944;48.722;9.316;2023-10-13T01:58:41;98114.44;;;15.00;100.00
2785;BME280;57944;48.722;9.316;2023-10-13T02:01:10;98114.56;;;15.05;99.78
2785;BME280;57944;48.722;9.316;2023-10-13T02:03:41;98111.88;;;15.00;99.91
2785;BME280;57944;48.722;9.316;2023-10-13T02:06:14;98113.88;;;14.98;100.00
2785;BME280;57944;48.722;9.316;2023-10-13T02:08:54;98113.22;;;15.03;100.00
2785;BME280;57944;48.722;9.316;2023-10-13T02:11:25;98110.88;;;15.01;100.00
2785;BME280;57944;48.722;9.316;2023-10-13T02:13:55;98105.81;;;14.94;100.00
2785;BME280;57944;48.722;9.316;2023-10-13T02:16:24;98104.56;;;14.85;100.00
2785;BME280;57944;48.722;9.316;2023-10-13T02:18:55;98097.31;;;14.82;100.00
2785;BME280;57944;48.722;9.316;2023-10-13T02:21:24;98096.72;;;14.80;100.00
2785;BME280;57944;48.722;9.316;2023-10-13T02:24:05;98095.81;;;14.74;100.00
2785;BME280;57944;48.722;9.316;2023-10-13T02:26:41;98101.56;;;14.70;100.00
2785;BME280;57944;48.722;9.316;2023-10-13T02:29:11;98091.47;;;14.57;100.00
2785;BME280;57944;48.722;9.316;2023-10-13T02:31:42;98086.91;;;14.59;100.00
2785;BME280;57944;48.722;9.316;2023-10-13T02:34:22;98079.69;;;14.49;100.00
2785;BME280;57944;48.722;9.316;2023-10-13T02:36:50;98083.91;;;14.43;100.00
2785;BME280;57944;48.722;9.316;2023-10-13T02:39:24;98075.13;;;14.33;100.00
2785;BME280;57944;48.722;9.316;2023-10-13T02:41:55;98073.97;;;14.28;100.00
2785;BME280;57944;48.722;9.316;2023-10-13T02:44:23;98070.47;;;14.23;100.00
2785;BME280;57944;48.722;9.316;2023-10-13T02:46:59;98063.50;;;14.12;100.00
2785;BME280;57944;48.722;9.316;2023-10-13T02:49:27;98063.50;;;14.12;100.00
2785;BME280;57944;48.722;9.316;2023-10-13T02:51:59;98068.63;;;14.12;100.00
2785;BME280;57944;48.722;9.316;2023-10-13T02:54:35;98063.94;;;14.08;100.00
2785;BME280;57944;48.722;9.316;2023-10-13T02:57:07;98065.34;;;14.04;100.00
2785;BME280;57944;48.722;9.316;2023-10-13T02:59:35;98061.06;;;13.98;100.00
2785;BME280;57944;48.722;9.316;2023-10-13T03:02:14;98060.81;;;13.81;100.00
2785;BME280;57944;48.722;9.316;2023-10-13T03:04:47;98058.75;;;13.72;100.00
2785;BME280;57944;48.722;9.316;2023-10-13T03:07:18;98062.56;;;13.62;100.00
2785;BME280;57944;48.722;9.316;2023-10-13T03:09:53;98068.50;;;13.56;100.00
2785;BME280;57944;48.722;9.316;2023-10-13T03:12:25;98060.34;;;13.41;100.00
2785;BME280;57944;48.722;9.316;2023-10-13T03:15:01;98067.25;;;13.40;100.00
2785;BME280;57944;48.722;9.316;2023-10-13T03:17:40;98066.13;;;13.30;100.00
2785;BME280;57944;48.722;9.316;2023-10-13T03:20:12;98054.16;;;13.24;100.00
2785;BME280;57944;48.722;9.316;2023-10-13T03:22:44;98053.38;;;13.16;100.00
2785;BME280;57944;48.722;9.316;2023-10-13T03:25:15;98052.25;;;13.12;100.00
2785;BME280;57944;48.722;9.316;2023-10-13T03:27:52;98055.22;;;13.09;100.00
2785;BME280;57944;48.722;9.316;2023-10-13T03:30:32;98051.06;;;13.08;100.00
2785;BME280;57944;48.722;9.316;2023-10-13T03:33:10;98045.03;;;12.96;100.00
2785;BME280;57944;48.722;9.316;2023-10-13T03:35:52;98043.47;;;12.95;100.00
2785;BME280;57944;48.722;9.316;2023-10-13T03:38:33;98044.97;;;13.09;100.00
2785;BME280;57944;48.722;9.316;2023-10-13T03:41:10;98047.25;;;13.17;100.00
2785;BME280;57944;48.722;9.316;2023-10-13T03:43:47;98048.84;;;13.18;100.00
2785;BME280;57944;48.722;9.316;2023-10-13T03:46:19;98042.50;;;13.28;100.00
2785;BME280;57944;48.722;9.316;2023-10-13T03:48:50;98037.78;;;13.25;100.00
2785;BME280;57944;48.722;9.316;2023-10-13T03:51:29;98040.97;;;13.27;100.00
2785;BME280;57944;48.722;9.316;2023-10-13T03:54:01;98041.34;;;13.24;100.00
2785;BME280;57944;48.722;9.316;2023-10-13T03:56:38;98046.72;;;13.15;100.00
2785;BME280;57944;48.722;9.316;2023-10-13T03:59:09;98045.16;;;13.08;100.00
2785;BME280;57944;48.722;9.316;2023-10-13T04:01:48;98044.63;;;12.99;100.00
2785;BME280;57944;48.722;9.316;2023-10-13T04:04:27;98047.81;;;12.94;100.00
2785;BME280;57944;48.722;9.316;2023-10-13T04:07:15;98049.22;;;12.84;100.00
2785;BME280;57944;48.722;9.316;2023-10-13T04:09:58;98036.31;;;12.72;100.00
2785;BME280;57944;48.722;9.316;2023-10-13T04:12:55;98042.44;;;12.64;100.00
2785;BME280;57944;48.722;9.316;2023-10-13T04:15:38;98045.63;;;12.53;100.00
2785;BME280;57944;48.722;9.316;2023-10-13T04:18:30;98039.94;;;12.51;100.00
2785;BME280;57944;48.722;9.316;2023-10-13T04:21:17;98047.66;;;12.38;100.00
2785;BME280;57944;48.722;9.316;2023-10-13T04:24:09;98046.47;;;12.34;100.00
2785;BME280;57944;48.722;9.316;2023-10-13T04:26:52;98038.47;;;12.23;100.00
2785;BME280;57944;48.722;9.316;2023-10-13T04:29:38;98043.56;;;12.17;100.00
2785;BME280;57944;48.722;9.316;2023-10-13T04:32:38;98042.59;;;12.11;100.00
2785;BME280;57944;48.722;9.316;2023-10-13T04:35:07;98044.97;;;12.13;100.00
2785;BME280;57944;48.722;9.316;2023-10-13T04:37:45;98043.19;;;12.13;100.00
2785;BME280;57944;48.722;9.316;2023-10-13T04:40:19;98034.38;;;12.09;100.00
2785;BME280;57944;48.722;9.316;2023-10-13T04:42:52;98037.88;;;12.08;100.00
2785;BME280;57944;48.722;9.316;2023-10-13T04:45:27;98033.97;;;12.05;100.00
2785;BME280;57944;48.722;9.316;2023-10-13T04:48:21;98032.97;;;12.13;100.00
2785;BME280;57944;48.722;9.316;2023-10-13T04:51:08;98023.34;;;12.15;100.00
2785;BME280;57944;48.722;9.316;2023-10-13T04:53:51;98027.66;;;12.15;100.00
2785;BME280;57944;48.722;9.316;2023-10-13T04:56:31;98020.63;;;11.97;100.00
2785;BME280;57944;48.722;9.316;2023-10-13T04:59:27;98021.63;;;11.96;100.00
2785;BME280;57944;48.722;9.316;2023-10-13T05:02:28;98018.84;;;11.84;100.00
2785;BME280;57944;48.722;9.316;2023-10-13T05:05:14;98015.94;;;11.87;100.00
2785;BME280;57944;48.722;9.316;2023-10-13T05:07:57;98019.88;;;11.90;100.00
2785;BME280;57944;48.722;9.316;2023-10-13T05:10:40;98014.75;;;11.90;100.00
2785;BME280;57944;48.722;9.316;2023-10-13T05:13:23;98018.28;;;11.89;100.00
2785;BME280;57944;48.722;9.316;2023-10-13T05:16:06;98013.38;;;11.87;100.00
2785;BME280;57944;48.722;9.316;2023-10-13T05:18:51;98014.75;;;11.90;100.00
2785;BME280;57944;48.722;9.316;2023-10-13T05:21:34;98009.25;;;11.86;100.00
2785;BME280;57944;48.722;9.316;2023-10-13T05:24:16;98009.81;;;11.81;100.00
2785;BME280;57944;48.722;9.316;2023-10-13T05:26:59;98009.25;;;11.86;100.00
2785;BME280;57944;48.722;9.316;2023-10-13T05:29:43;98011.00;;;11.85;100.00
2785;BME280;57944;48.722;9.316;2023-10-13T05:32:26;98016.72;;;11.88;100.00
2785;BME280;57944;48.722;9.316;2023-10-13T05:35:12;98011.00;;;11.85;100.00
2785;BME280;57944;48.722;9.316;2023-10-13T05:37:55;98009.81;;;11.81;100.00
2785;BME280;57944;48.722;9.316;2023-10-13T05:40:38;98003.34;;;11.72;100.00
2785;BME280;57944;48.722;9.316;2023-10-13T05:43:21;98003.94;;;11.68;100.00
2785;BME280;57944;48.722;9.316;2023-10-13T05:46:05;98004.94;;;11.60;100.00
2785;BME280;57944;48.722;9.316;2023-10-13T05:49:05;98000.03;;;11.65;100.00
2785;BME280;57944;48.722;9.316;2023-10-13T05:52:09;97992.94;;;11.67;100.00
2785;BME280;57944;48.722;9.316;2023-10-13T05:55:08;97996.09;;;11.76;100.00
2785;BME280;57944;48.722;9.316;2023-10-13T05:57:51;98006.50;;;11.88;100.00
2785;BME280;57944;48.722;9.316;2023-10-13T06:00:41;98008.59;;;12.11;100.00
2785;BME280;57944;48.722;9.316;2023-10-13T06:03:24;98010.00;;;12.58;100.00
2785;BME280;57944;48.722;9.316;2023-10-13T06:06:07;98015.00;;;13.16;100.00
2785;BME280;57944;48.722;9.316;2023-10-13T06:08:53;98012.03;;;13.51;100.00
2785;BME280;57944;48.722;9.316;2023-10-13T06:11:35;98003.94;;;13.73;100.00
2785;BME280;57944;48.722;9.316;2023-10-13T06:14:21;98010.94;;;13.84;100.00
2785;BME280;57944;48.722;9.316;2023-10-13T06:17:03;98014.88;;;14.05;100.00
2785;BME280;57944;48.722;9.316;2023-10-13T06:19:46;98019.38;;;14.28;100.00
2785;BME280;57944;48.722;9.316;2023-10-13T06:22:32;98022.91;;;14.45;100.00
2785;BME280;57944;48.722;9.316;2023-10-13T06:25:17;98021.56;;;14.61;100.00
2785;BME280;57944;48.722;9.316;2023-10-13T06:28:00;98020.88;;;14.84;100.00
2785;BME280;57944;48.722;9.316;2023-10-13T06:30:57;98026.44;;;15.23;100.00
2785;BME280;57944;48.722;9.316;2023-10-13T06:33:28;98025.28;;;15.61;100.00
2785;BME280;57944;48.722;9.316;2023-10-13T06:36:02;98030.66;;;15.95;100.00
2785;BME280;57944;48.722;9.316;2023-10-13T06:38:37;98033.00;;;16.08;100.00
2785;BME280;57944;48.722;9.316;2023-10-13T06:41:11;98031.41;;;16.30;100.00
2785;BME280;57944;48.722;9.316;2023-10-13T06:43:47;98026.06;;;16.49;100.00
2785;BME280;57944;48.722;9.316;2023-10-13T06:46:28;98025.50;;;16.59;100.00
2785;BME280;57944;48.722;9.316;2023-10-13T06:49:01;98023.34;;;16.67;100.00
2785;BME280;57944;48.722;9.316;2023-10-13T06:51:31;98022.19;;;16.75;100.00
2785;BME280;57944;48.722;9.316;2023-10-13T06:54:06;98015.00;;;16.89;100.00
2785;BME280;57944;48.722;9.316;2023-10-13T06:56:50;98026.09;;;17.06;100.00
2785;BME280;57944;48.722;9.316;2023-10-13T06:59:21;98016.97;;;17.15;100.00
2785;BME280;57944;48.722;9.316;2023-10-13T07:01:54;98018.84;;;17.03;100.00
2785;BME280;57944;48.722;9.316;2023-10-13T07:04:50;98021.91;;;17.34;100.00
2785;BME280;57944;48.722;9.316;2023-10-13T07:07:24;98015.88;;;17.62;100.00
2785;BME280;57944;48.722;9.316;2023-10-13T07:09:55;98022.03;;;17.95;100.00
2785;BME280;57944;48.722;9.316;2023-10-13T07:12:28;98030.38;;;18.24;100.00
2785;BME280;57944;48.722;9.316;2023-10-13T07:15:00;98022.44;;;18.52;100.00
2785;BME280;57944;48.722;9.316;2023-10-13T07:17:38;98022.22;;;18.76;100.00
2785;BME280;57944;48.722;9.316;2023-10-13T07:20:12;98018.84;;;18.75;100.00
2785;BME280;57944;48.722;9.316;2023-10-13T07:22:51;98025.75;;;18.70;100.00
2785;BME280;57944;48.722;9.316;2023-10-13T07:25:30;98021.59;;;18.69;99.77
2785;BME280;57944;48.722;9.316;2023-10-13T07:28:08;98029.03;;;18.87;99.16
2785;BME280;57944;48.722;9.316;2023-10-13T07:30:39;98027.44;;;19.13;97.14
2785;BME280;57944;48.722;9.316;2023-10-13T07:33:17;98030.19;;;19.02;97.46
2785;BME280;57944;48.722;9.316;2023-10-13T07:35:59;98033.06;;;19.05;96.67
2785;BME280;57944;48.722;9.316;2023-10-13T07:38:38;98027.06;;;19.00;98.46
2785;BME280;57944;48.722;9.316;2023-10-13T07:41:10;98029.56;;;18.89;99.99
2785;BME280;57944;48.722;9.316;2023-10-13T07:43:56;98030.69;;;18.98;91.79
2785;BME280;57944;48.722;9.316;2023-10-13T07:46:27;98025.50;;;18.98;91.01
2785;BME280;57944;48.722;9.316;2023-10-13T07:49:00;98018.75;;;19.25;87.66
2785;BME280;57944;48.722;9.316;2023-10-13T07:51:36;98026.66;;;19.45;85.04
2785;BME280;57944;48.722;9.316;2023-10-13T07:54:13;98019.06;;;19.66;84.72
2785;BME280;57944;48.722;9.316;2023-10-13T07:56:49;98025.16;;;19.86;82.81
2785;BME280;57944;48.722;9.316;2023-10-13T07:59:24;98023.16;;;20.04;78.78
2785;BME280;57944;48.722;9.316;2023-10-13T08:01:55;98025.59;;;20.36;78.54
2785;BME280;57944;48.722;9.316;2023-10-13T08:04:38;98021.84;;;20.69;75.54
2785;BME280;57944;48.722;9.316;2023-10-13T08:07:08;98018.44;;;20.59;76.06
2785;BME280;57944;48.722;9.316;2023-10-13T08:09:43;98016.16;;;20.78;76.49
2785;BME280;57944;48.722;9.316;2023-10-13T08:12:19;98027.81;;;20.80;75.98
2785;BME280;57944;48.722;9.316;2023-10-13T08:14:53;98017.72;;;20.73;80.48
2785;BME280;57944;48.722;9.316;2023-10-13T08:17:39;98013.53;;;20.57;80.84
2785;BME280;57944;48.722;9.316;2023-10-13T08:20:12;98006.50;;;20.52;81.33
2785;BME280;57944;48.722;9.316;2023-10-13T08:22:44;98004.69;;;20.48;81.60
2785;BME280;57944;48.722;9.316;2023-10-13T08:25:15;97998.44;;;20.44;81.41
2785;BME280;57944;48.722;9.316;2023-10-13T08:27:48;97999.94;;;20.24;86.36
2785;BME280;57944;48.722;9.316;2023-10-13T08:30:20;98002.50;;;20.19;88.23
2785;BME280;57944;48.722;9.316;2023-10-13T08:32:57;97994.75;;;20.19;88.97
2785;BME280;57944;48.722;9.316;2023-10-13T08:35:44;97989.59;;;20.24;90.03
2785;BME280;57944;48.722;9.316;2023-10-13T08:38:44;98001.63;;;20.61;85.24
2785;BME280;57944;48.722;9.316;2023-10-13T08:41:23;98003.50;;;21.12;80.36
2785;BME280;57944;48.722;9.316;2023-10-13T08:44:05;98001.78;;;21.98;71.53
2785;BME280;57944;48.722;9.316;2023-10-13T08:46:40;97986.41;;;23.06;64.10
2785;BME280;57944;48.722;9.316;2023-10-13T08:49:23;97983.78;;;24.12;57.17
2785;BME280;57944;48.722;9.316;2023-10-13T08:51:58;97987.38;;;24.92;53.40
2785;BME280;57944;48.722;9.316;2023-10-13T08:54:57;97982.50;;;25.51;51.22
2785;BME280;57944;48.722;9.316;2023-10-13T08:58:00;97975.94;;;26.08;48.86
2785;BME280;57944;48.722;9.316;2023-10-13T09:00:45;97970.03;;;26.76;44.85
2785;BME280;57944;48.722;9.316;2023-10-13T09:03:26;97962.13;;;26.89;41.30
2785;BME280;57944;48.722;9.316;2023-10-13T09:06:12;97969.38;;;27.63;39.78
2785;BME280;57944;48.722;9.316;2023-10-13T09:08:42;97971.38;;;28.24;37.50
2785;BME280;57944;48.722;9.316;2023-10-13T09:11:33;97965.66;;;28.74;36.03
2785;BME280;57944;48.722;9.316;2023-10-13T09:14:17;97965.03;;;28.86;35.70
2785;BME280;57944;48.722;9.316;2023-10-13T09:17:03;97969.03;;;28.92;35.33
2785;BME280;57944;48.722;9.316;2023-10-13T09:20:06;97961.59;;;29.03;35.10
2785;BME280;57944;48.722;9.316;2023-10-13T09:22:51;97958.97;;;29.03;34.50
2785;BME280;57944;48.722;9.316;2023-10-13T09:25:36;97955.50;;;28.72;35.83
2785;BME280;57944;48.722;9.316;2023-10-13T09:28:12;97958.91;;;28.47;36.45
2785;BME280;57944;48.722;9.316;2023-10-13T09:30:47;97955.50;;;28.03;37.44
2785;BME280;57944;48.722;9.316;2023-10-13T09:33:21;97950.25;;;28.55;36.56
2785;BME280;57944;48.722;9.316;2023-10-13T09:35:58;97942.47;;;28.93;35.99
2785;BME280;57944;48.722;9.316;2023-10-13T09:38:28;97951.25;;;29.53;35.20
2785;BME280;57944;48.722;9.316;2023-10-13T09:40:59;97936.81;;;29.30;33.96
2785;BME280;57944;48.722;9.316;2023-10-13T09:43:29;97940.00;;;29.44;33.62
2785;BME280;57944;48.722;9.316;2023-10-13T09:46:00;97930.31;;;29.95;32.15
2785;BME280;57944;48.722;9.316;2023-10-13T09:48:46;97928.56;;;29.99;32.33
2785;BME280;57944;48.722;9.316;2023-10-13T09:51:17;97926.19;;;30.48;31.35
2785;BME280;57944;48.722;9.316;2023-10-13T09:53:58;97926.91;;;31.40;30.21
2785;BME280;57944;48.722;9.316;2023-10-13T09:56:38;97917.88;;;31.66;29.66
2785;BME280;57944;48.722;9.316;2023-10-13T09:59:22;97911.19;;;31.68;28.55
2785;BME280;57944;48.722;9.316;2023-10-13T10:01:54;97914.16;;;31.42;29.13
2785;BME280;57944;48.722;9.316;2023-10-13T10:04:27;97906.31;;;31.82;29.00
2785;BME280;57944;48.722;9.316;2023-10-13T10:06:59;97907.88;;;32.40;28.46
2785;BME280;57944;48.722;9.316;2023-10-13T10:09:32;97898.00;;;32.37;27.82
2785;BME280;57944;48.722;9.316;2023-10-13T10:12:25;97905.22;;;32.84;27.81
2785;BME280;57944;48.722;9.316;2023-10-13T10:15:12;97903.94;;;33.41;26.92
2785;BME280;57944;48.722;9.316;2023-10-13T10:17:48;97894.81;;;34.32;25.99
2785;BME280;57944;48.722;9.316;2023-10-13T10:20:28;97885.63;;;34.91;25.77
2785;BME280;57944;48.722;9.316;2023-10-13T10:23:10;97889.38;;;34.90;25.65
2785;BME280;57944;48.722;9.316;2023-10-13T10:25:51;97890.59;;;34.51;25.47
2785;BME280;57944;48.722;9.316;2023-10-13T10:28:36;97879.22;;;33.33;25.82
2785;BME280;57944;48.722;9.316;2023-10-13T10:31:10;97883.84;;;34.11;25.23
2785;BME280;57944;48.722;9.316;2023-10-13T10:33:45;97871.72;;;34.10;25.27
2785;BME280;57944;48.722;9.316;2023-10-13T10:36:29;97866.09;;;34.77;25.38
2785;BME280;57944;48.722;9.316;2023-10-13T10:39:02;97862.09;;;35.13;24.05
2785;BME280;57944;48.722;9.316;2023-10-13T10:41:34;97866.44;;;35.55;23.34
2785;BME280;57944;48.722;9.316;2023-10-13T10:44:13;97853.59;;;35.27;23.75
2785;BME280;57944;48.722;9.316;2023-10-13T10:46:53;97852.56;;;34.36;23.58
2785;BME280;57944;48.722;9.316;2023-10-13T10:49:37;97861.28;;;33.43;25.00
2785;BME280;57944;48.722;9.316;2023-10-13T10:52:10;97846.19;;;33.78;24.45
2785;BME280;57944;48.722;9.316;2023-10-13T10:54:58;97841.63;;;31.32;27.69
2785;BME280;57944;48.722;9.316;2023-10-13T10:57:34;97845.06;;;32.30;25.95
2785;BME280;57944;48.722;9.316;2023-10-13T11:00:19;97828.06;;;31.58;26.63
2785;BME280;57944;48.722;9.316;2023-10-13T11:02:56;97829.53;;;30.70;27.78
2785;BME280;57944;48.722;9.316;2023-10-13T11:05:26;97824.31;;;31.07;27.35
2785;BME280;57944;48.722;9.316;2023-10-13T11:08:00;97819.88;;;31.35;27.21
2785;BME280;57944;48.722;9.316;2023-10-13T11:10:46;97817.28;;;30.86;28.22
2785;BME280;57944;48.722;9.316;2023-10-13T11:13:16;97822.59;;;30.08;29.07
2785;BME280;57944;48.722;9.316;2023-10-13T11:15:49;97805.53;;;30.14;28.40
2785;BME280;57944;48.722;9.316;2023-10-13T11:18:30;97808.00;;;30.31;27.75
2785;BME280;57944;48.722;9.316;2023-10-13T11:21:14;97800.03;;;30.06;28.08
2785;BME280;57944;48.722;9.316;2023-10-13T11:23:55;97792.38;;;30.14;28.55
2785;BME280;57944;48.722;9.316;2023-10-13T11:26:39;97795.03;;;29.00;28.70
2785;BME280;57944;48.722;9.316;2023-10-13T11:29:18;97791.44;;;28.45;29.47
2785;BME280;57944;48.722;9.316;2023-10-13T11:31:51;97786.09;;;28.07;30.04
2785;BME280;57944;48.722;9.316;2023-10-13T11:34:26;97783.78;;;27.97;29.81
2785;BME280;57944;48.722;9.316;2023-10-13T11:37:07;97791.78;;;27.39;30.90
2785;BME280;57944;48.722;9.316;2023-10-13T11:39:50;97784.84;;;27.52;30.75
2785;BME280;57944;48.722;9.316;2023-10-13T11:42:24;97786.56;;;27.39;30.71
2785;BME280;57944;48.722;9.316;2023-10-13T11:44:56;97785.81;;;27.56;30.50
2785;BME280;57944;48.722;9.316;2023-10-13T11:47:43;97779.19;;;27.59;30.75
2785;BME280;57944;48.722;9.316;2023-10-13T11:50:27;97775.63;;;27.63;30.31
2785;BME280;57944;48.722;9.316;2023-10-13T11:53:03;97775.94;;;27.71;30.56
2785;BME280;57944;48.722;9.316;2023-10-13T11:55:35;97767.94;;;27.50;30.33
2785;BME280;57944;48.722;9.316;2023-10-13T11:58:09;97768.53;;;27.47;30.32
2785;BME280;57944;48.722;9.316;2023-10-13T12:00:42;97764.53;;;27.49;30.89
2785;BME280;57944;48.722;9.316;2023-10-13T12:03:35;97756.09;;;27.61;30.55
2785;BME280;57944;48.722;9.316;2023-10-13T12:06:18;97743.44;;;27.63;31.73
2785;BME280;57944;48.722;9.316;2023-10-13T12:09:00;97738.38;;;27.40;29.70
2785;BME280;57944;48.722;9.316;2023-10-13T12:11:41;97746.22;;;27.58;30.36
2785;BME280;57944;48.722;9.316;2023-10-13T12:14:15;97735.75;;;27.23;29.92
2785;BME280;57944;48.722;9.316;2023-10-13T12:16:49;97730.22;;;27.33;30.44
2785;BME280;57944;48.722;9.316;2023-10-13T12:19:22;97725.44;;;27.35;30.77
2785;BME280;57944;48.722;9.316;2023-10-13T12:21:55;97720.66;;;27.20;30.33
2785;BME280;57944;48.722;9.316;2023-10-13T12:24:30;97720.03;;;27.40;30.65
2785;BME280;57944;48.722;9.316;2023-10-13T12:27:08;97724.97;;;27.59;30.25
2785;BME280;57944;48.722;9.316;2023-10-13T12:29:53;97718.78;;;27.73;30.33
2785;BME280;57944;48.722;9.316;2023-10-13T12:32:24;97715.41;;;27.55;30.89
2785;BME280;57944;48.722;9.316;2023-10-13T12:34:58;97713.41;;;27.52;30.93
2785;BME280;57944;48.722;9.316;2023-10-13T12:37:44;97709.28;;;27.51;30.76
2785;BME280;57944;48.722;9.316;2023-10-13T12:40:32;97707.09;;;27.70;31.01
2785;BME280;57944;48.722;9.316;2023-10-13T12:43:15;97703.09;;;27.47;31.25
2785;BME280;57944;48.722;9.316;2023-10-13T12:46:00;97700.94;;;27.49;30.95
2785;BME280;57944;48.722;9.316;2023-10-13T12:48:43;97699.41;;;27.65;31.30
2785;BME280;57944;48.722;9.316;2023-10-13T12:51:31;97691.38;;;27.70;32.34
2785;BME280;57944;48.722;9.316;2023-10-13T12:54:18;97691.66;;;27.77;30.66
2785;BME280;57944;48.722;9.316;2023-10-13T12:56:51;97685.03;;;27.89;31.11
2785;BME280;57944;48.722;9.316;2023-10-13T12:59:24;97684.88;;;27.94;30.78
2785;BME280;57944;48.722;9.316;2023-10-13T13:01:59;97674.78;;;28.13;30.17
2785;BME280;57944;48.722;9.316;2023-10-13T13:04:34;97679.13;;;28.09;30.94
2785;BME280;57944;48.722;9.316;2023-10-13T13:07:05;97675.16;;;27.94;30.97
2785;BME280;57944;48.722;9.316;2023-10-13T13:09:41;97668.81;;;28.04;30.58
2785;BME280;57944;48.722;9.316;2023-10-13T13:12:11;97667.22;;;28.20;31.02
2785;BME280;57944;48.722;9.316;2023-10-13T13:14:42;97664.28;;;28.22;30.63
2785;BME280;57944;48.722;9.316;2023-10-13T13:17:16;97661.13;;;28.46;30.25
2785;BME280;57944;48.722;9.316;2023-10-13T13:19:46;97662.63;;;28.17;30.33
2785;BME280;57944;48.722;9.316;2023-10-13T13:22:17;97656.53;;;28.34;30.57
2785;BME280;57944;48.722;9.316;2023-10-13T13:24:48;97649.94;;;28.19;30.58
2785;BME280;57944;48.722;9.316;2023-10-13T13:27:20;97648.88;;;28.20;30.87
2785;BME280;57944;48.722;9.316;2023-10-13T13:29:52;97647.78;;;28.21;30.69
2785;BME280;57944;48.722;9.316;2023-10-13T13:32:26;97640.16;;;28.37;30.70
2785;BME280;57944;48.722;9.316;2023-10-13T13:34:57;97636.16;;;28.40;30.35
2785;BME280;57944;48.722;9.316;2023-10-13T13:37:32;97635.44;;;28.31;30.29
2785;BME280;57944;48.722;9.316;2023-10-13T13:40:06;97620.47;;;27.93;30.27
2785;BME280;57944;48.722;9.316;2023-10-13T13:42:45;97629.78;;;28.20;30.11
2785;BME280;57944;48.722;9.316;2023-10-13T13:45:17;97617.09;;;28.31;29.79
2785;BME280;57944;48.722;9.316;2023-10-13T13:47:57;97602.59;;;28.24;29.84
2785;BME280;57944;48.722;9.316;2023-10-13T13:50:38;97607.66;;;28.29;29.98
2785;BME280;57944;48.722;9.316;2023-10-13T13:53:08;97604.69;;;28.10;29.17
2785;BME280;57944;48.722;9.316;2023-10-13T13:55:39;97596.28;;;28.25;28.98
2785;BME280;57944;48.722;9.316;2023-10-13T13:58:10;97592.44;;;28.23;27.90
2785;BME280;57944;48.722;9.316;2023-10-13T14:00:40;97579.16;;;28.28;27.97
2785;BME280;57944;48.722;9.316;2023-10-13T14:03:18;97585.81;;;28.25;28.27